Time;durP1;ratioP1;P1;durP2;ratioP2;P2;SDS_P1;SDS_P2;PMS_P1;PMS_P2;Temp;Humidity;BMP_temperature;BMP_pressure;BME280_temperature;BME280_humidity;BME280_pressure;Samples;Min_cycle;Max_cycle;Signal;HPM_P1;HPM_P2
2021/09/30 00:07:51;;;;;;;;;150.00;150.00;;;;;;;;2;279081410;279081410;-79
2021/09/30 00:35:15;;;;;;;;;147.50;147.50;;;;;;;;2;234070758;234070758;-79
2021/09/30 03:01:14;;;;;;;;;116.00;116.00;;;;;;;;2;234070835;234070835;-80
2021/09/30 03:10:17;;;;;;;;;112.50;112.50;;;;;;;;2;279080470;279080470;-80
2021/09/30 03:19:02;;;;;;;;;119.00;119.00;;;;;;;;2;234069695;234069695;-80
2021/09/30 03:28:04;;;;;;;;;117.50;117.50;;;;;;;;2;279081017;279081017;-80
2021/09/30 03:36:47;;;;;;;;;104.00;104.00;;;;;;;;2;234069902;234069902;-80
2021/09/30 03:45:47;;;;;;;;;;;;;;;;;;2;279081807;279081807;-80
2021/09/30 04:03:49;;;;;;;;;123.00;122.00;;;;;;;;2;279079570;279079570;-80
2021/09/30 04:12:31;;;;;;;;;104.00;104.00;;;;;;;;2;234067125;234067125;-79
2021/09/30 04:21:32;;;;;;;;;93.50;93.50;;;;;;;;2;279079893;279079893;-80
2021/09/30 04:30:14;;;;;;;;;92.50;90.50;;;;;;;;2;234067444;234067444;-80
2021/09/30 04:39:16;;;;;;;;;99.00;99.00;;;;;;;;2;279079612;279079612;-79
2021/09/30 04:47:58;;;;;;;;;95.00;95.00;;;;;;;;2;234069228;234069228;-79
2021/09/30 04:56:59;;;;;;;;;98.50;98.50;;;;;;;;2;279078117;279078117;-81
2021/09/30 05:05:41;;;;;;;;;103.50;103.50;;;;;;;;2;234070977;234070977;-81
2021/09/30 05:14:42;;;;;;;;;108.00;108.00;;;;;;;;2;279079211;279079211;-80
2021/09/30 05:23:24;;;;;;;;;99.50;99.50;;;;;;;;2;234067228;234067228;-80
2021/09/30 05:32:24;;;;;;;;;93.00;93.00;;;;;;;;2;279081572;279081572;-81
2021/09/30 05:41:07;;;;;;;;;118.00;118.00;;;;;;;;2;234069704;234069704;-81
2021/09/30 05:50:08;;;;;;;;;90.50;90.50;;;;;;;;2;279081396;279081396;-81
2021/09/30 05:58:50;;;;;;;;;99.50;99.50;;;;;;;;2;234067285;234067285;-81
2021/09/30 06:16:53;;;;;;;;;103.50;103.50;;;;;;;;2;234069793;234069793;-81
2021/09/30 06:25:54;;;;;;;;;103.00;103.00;;;;;;;;2;279085020;279085020;-81
2021/09/30 06:34:36;;;;;;;;;105.00;105.00;;;;;;;;2;234069872;234069872;-82
2021/09/30 06:43:37;;;;;;;;;96.50;96.50;;;;;;;;2;279081380;279081380;-83
2021/09/30 06:52:19;;;;;;;;;97.50;97.50;;;;;;;;2;234068394;234068394;-83
2021/09/30 07:01:21;;;;;;;;;96.00;96.00;;;;;;;;2;279080215;279080215;-83
2021/09/30 07:10:04;;;;;;;;;96.50;94.50;;;;;;;;2;234067916;234067916;-83
2021/09/30 07:19:07;;;;;;;;;87.50;87.50;;;;;;;;2;279079652;279079652;-83
2021/09/30 07:27:49;;;;;;;;;86.00;86.00;;;;;;;;2;234068530;234068530;-82
2021/09/30 07:36:50;;;;;;;;;93.00;93.00;;;;;;;;2;279078527;279078527;-82
2021/09/30 07:45:32;;;;;;;;;77.00;71.00;;;;;;;;2;234069607;234069607;-80
2021/09/30 07:54:33;;;;;;;;;79.00;75.50;;;;;;;;2;279080010;279080010;-78
2021/09/30 08:03:15;;;;;;;;;76.00;72.00;;;;;;;;2;234067993;234067993;-79
2021/09/30 08:12:16;;;;;;;;;83.00;82.00;;;;;;;;2;279080440;279080440;-79
2021/09/30 08:20:58;;;;;;;;;77.50;75.00;;;;;;;;2;234068285;234068285;-79
2021/09/30 08:29:59;;;;;;;;;76.50;73.00;;;;;;;;2;279078600;279078600;-79
2021/09/30 08:38:42;;;;;;;;;75.50;71.00;;;;;;;;2;234068296;234068296;-79
2021/09/30 08:47:45;;;;;;;;;68.00;58.50;;;;;;;;2;279081982;279081982;-78
2021/09/30 08:56:28;;;;;;;;;71.50;64.50;;;;;;;;2;234066548;234066548;-78
2021/09/30 09:05:28;;;;;;;;;69.00;61.50;;;;;;;;2;279079955;279079955;-79
2021/09/30 09:14:11;;;;;;;;;70.50;62.50;;;;;;;;2;234068132;234068132;-79
2021/09/30 09:23:11;;;;;;;;;55.50;46.50;;;;;;;;2;279082376;279082376;-78
2021/09/30 09:31:54;;;;;;;;;70.00;61.50;;;;;;;;2;234071533;234071533;-79
2021/09/30 09:41:05;;;;;;;;;52.00;44.00;;;;;;;;2;279081748;279081748;-79
2021/09/30 09:50:06;;;;;;;;;54.50;46.00;;;;;;;;2;234069201;234069201;-79
2021/09/30 09:59:07;;;;;;;;;54.00;45.50;;;;;;;;2;279080125;279080125;-80
2021/09/30 10:11:09;;;;;;;;;58.00;47.50;;;;;;;;2;234068694;234068694;-80
2021/09/30 10:20:09;;;;;;;;;57.50;48.00;;;;;;;;2;279079747;279079747;-80
2021/09/30 10:28:52;;;;;;;;;50.00;43.00;;;;;;;;2;234069730;234069730;-80
2021/09/30 10:38:12;;;;;;;;;55.00;46.00;;;;;;;;2;279080354;279080354;-77
2021/09/30 10:46:57;;;;;;;;;53.50;45.00;;;;;;;;2;234069590;234069590;-80
2021/09/30 10:55:57;;;;;;;;;58.00;48.50;;;;;;;;2;279080095;279080095;-79
2021/09/30 11:04:58;;;;;;;;;57.00;48.00;;;;;;;;2;234068679;234068679;-79
2021/09/30 11:13:59;;;;;;;;;64.00;52.50;;;;;;;;2;279076596;279076596;-79
2021/09/30 11:22:42;;;;;;;;;34.00;32.00;;;;;;;;2;234068598;234068598;-79
2021/09/30 11:31:42;;;;;;;;;57.50;48.00;;;;;;;;2;279081195;279081195;-81
2021/09/30 11:40:25;;;;;;;;;32.00;31.00;;;;;;;;2;234071896;234071896;-81
2021/09/30 11:49:27;;;;;;;;;33.00;31.50;;;;;;;;2;279081530;279081530;-82
2021/09/30 11:58:12;;;;;;;;;29.00;29.00;;;;;;;;2;234069186;234069186;-81
2021/09/30 12:07:15;;;;;;;;;53.50;45.50;;;;;;;;2;279079597;279079597;-82
2021/09/30 12:16:00;;;;;;;;;49.50;42.50;;;;;;;;2;234068101;234068101;-82
2021/09/30 12:25:21;;;;;;;;;52.00;44.00;;;;;;;;2;279085295;279085295;-83
2021/09/30 12:34:22;;;;;;;;;48.50;41.50;;;;;;;;2;234067618;234067618;-80
2021/09/30 12:43:26;;;;;;;;;25.00;25.00;;;;;;;;2;279079662;279079662;-82
2021/09/30 12:52:16;;;;;;;;;43.50;38.00;;;;;;;;2;234068321;234068321;-82
2021/09/30 13:01:28;;;;;;;;;38.50;35.00;;;;;;;;2;279080328;279080328;-80
2021/09/30 13:10:11;;;;;;;;;46.00;39.50;;;;;;;;2;234067582;234067582;-77
2021/09/30 13:19:11;;;;;;;;;43.00;37.50;;;;;;;;2;279081419;279081419;-79
2021/09/30 13:27:54;;;;;;;;;56.50;47.50;;;;;;;;2;234068713;234068713;-79
2021/09/30 13:36:54;;;;;;;;;46.50;41.00;;;;;;;;2;279083034;279083034;-77
2021/09/30 13:45:37;;;;;;;;;32.00;31.00;;;;;;;;2;234069288;234069288;-77
2021/09/30 13:54:38;;;;;;;;;26.50;26.50;;;;;;;;2;279082502;279082502;-79
2021/09/30 14:03:20;;;;;;;;;18.00;18.00;;;;;;;;2;234066841;234066841;-79
2021/09/30 14:12:21;;;;;;;;;29.50;28.50;;;;;;;;2;279083097;279083097;-76
2021/09/30 14:21:04;;;;;;;;;43.50;38.50;;;;;;;;2;234065674;234065674;-76
2021/09/30 14:30:05;;;;;;;;;38.50;35.00;;;;;;;;2;279079872;279079872;-77
2021/09/30 14:38:48;;;;;;;;;40.50;36.00;;;;;;;;2;234069857;234069857;-76
2021/09/30 14:47:49;;;;;;;;;40.00;36.00;;;;;;;;2;279080924;279080924;-76
2021/09/30 14:56:32;;;;;;;;;50.50;43.50;;;;;;;;2;234071468;234071468;-78
2021/09/30 15:05:34;;;;;;;;;51.50;43.50;;;;;;;;2;279082881;279082881;-78
2021/09/30 15:14:16;;;;;;;;;34.00;31.50;;;;;;;;2;234069241;234069241;-78
2021/09/30 15:23:18;;;;;;;;;53.00;45.00;;;;;;;;2;279080601;279080601;-78
2021/09/30 15:32:02;;;;;;;;;40.00;36.50;;;;;;;;2;234068047;234068047;-78
2021/09/30 15:41:03;;;;;;;;;33.50;32.00;;;;;;;;2;279080438;279080438;-78
2021/09/30 15:49:46;;;;;;;;;48.00;41.00;;;;;;;;2;234069800;234069800;-78
2021/09/30 15:58:47;;;;;;;;;42.00;37.50;;;;;;;;2;279081852;279081852;-81
2021/09/30 16:07:31;;;;;;;;;50.00;42.50;;;;;;;;2;234071013;234071013;-81
2021/09/30 16:16:31;;;;;;;;;47.00;40.50;;;;;;;;2;279082236;279082236;-79
2021/09/30 16:25:14;;;;;;;;;46.50;40.50;;;;;;;;2;234068921;234068921;-81
2021/09/30 16:34:15;;;;;;;;;25.50;25.50;;;;;;;;2;279083243;279083243;-79
2021/09/30 16:42:57;;;;;;;;;30.00;29.50;;;;;;;;2;234067570;234067570;-79
2021/09/30 16:51:58;;;;;;;;;32.50;31.00;;;;;;;;2;279081031;279081031;-81
2021/09/30 17:00:41;;;;;;;;;47.00;40.50;;;;;;;;2;234069533;234069533;-80
2021/09/30 17:09:41;;;;;;;;;49.50;42.50;;;;;;;;2;279082249;279082249;-79
2021/09/30 17:18:25;;;;;;;;;41.50;37.00;;;;;;;;2;234069993;234069993;-79
2021/09/30 17:27:25;;;;;;;;;45.00;39.50;;;;;;;;2;279081411;279081411;-82
2021/09/30 17:36:08;;;;;;;;;46.00;40.00;;;;;;;;2;234069470;234069470;-80
2021/09/30 17:45:09;;;;;;;;;46.00;40.00;;;;;;;;2;279080829;279080829;-79
2021/09/30 17:53:52;;;;;;;;;28.50;28.00;;;;;;;;2;234067854;234067854;-80
2021/09/30 18:02:52;;;;;;;;;53.00;45.00;;;;;;;;2;279081143;279081143;-79
2021/09/30 18:11:35;;;;;;;;;48.50;41.50;;;;;;;;2;234071370;234071370;-79
2021/09/30 18:20:42;;;;;;;;;45.00;39.00;;;;;;;;2;279079618;279079618;-79
2021/09/30 18:29:24;;;;;;;;;51.50;43.50;;;;;;;;2;234072600;234072600;-80
2021/09/30 18:38:27;;;;;;;;;46.00;40.00;;;;;;;;2;279082112;279082112;-80
2021/09/30 18:47:10;;;;;;;;;50.00;43.00;;;;;;;;2;234068082;234068082;-80
2021/09/30 18:56:11;;;;;;;;;52.50;44.50;;;;;;;;2;279080567;279080567;-81
2021/09/30 19:04:53;;;;;;;;;55.50;47.00;;;;;;;;2;234069490;234069490;-81
2021/09/30 19:13:56;;;;;;;;;58.50;49.00;;;;;;;;2;279082771;279082771;-80
2021/09/30 19:22:40;;;;;;;;;51.00;43.50;;;;;;;;2;234068279;234068279;-79
2021/09/30 19:31:40;;;;;;;;;47.50;41.00;;;;;;;;2;279082709;279082709;-80
2021/09/30 19:40:25;;;;;;;;;53.00;44.50;;;;;;;;2;234068900;234068900;-79
2021/09/30 19:49:27;;;;;;;;;56.50;47.50;;;;;;;;2;279079736;279079736;-79
2021/09/30 19:58:09;;;;;;;;;54.50;46.00;;;;;;;;2;234067771;234067771;-81
2021/09/30 20:07:10;;;;;;;;;56.00;47.50;;;;;;;;2;279079603;279079603;-82
2021/09/30 20:15:53;;;;;;;;;63.50;53.00;;;;;;;;2;234070258;234070258;-82
2021/09/30 20:24:54;;;;;;;;;62.00;51.50;;;;;;;;2;279082785;279082785;-83
2021/09/30 20:33:36;;;;;;;;;61.50;51.00;;;;;;;;2;234067388;234067388;-84
2021/09/30 20:42:37;;;;;;;;;65.50;55.00;;;;;;;;2;279081640;279081640;-83
2021/09/30 20:51:19;;;;;;;;;61.00;50.50;;;;;;;;2;234069820;234069820;-84
2021/09/30 21:00:20;;;;;;;;;62.00;52.50;;;;;;;;2;279082633;279082633;-84
2021/09/30 21:09:03;;;;;;;;;62.00;51.50;;;;;;;;2;234070392;234070392;-85
2021/09/30 21:18:03;;;;;;;;;66.00;55.50;;;;;;;;2;279082280;279082280;-85
2021/09/30 21:26:48;;;;;;;;;64.50;53.50;;;;;;;;2;234070447;234070447;-84
2021/09/30 21:35:49;;;;;;;;;54.00;45.50;;;;;;;;2;279082671;279082671;-84
2021/09/30 21:44:33;;;;;;;;;58.00;48.50;;;;;;;;2;234070670;234070670;-84
2021/09/30 21:53:33;;;;;;;;;58.00;47.50;;;;;;;;2;279080869;279080869;-85
2021/09/30 22:02:16;;;;;;;;;58.50;48.50;;;;;;;;2;234067484;234067484;-85
2021/09/30 22:11:16;;;;;;;;;54.00;45.00;;;;;;;;2;279083396;279083396;-83
2021/09/30 22:19:59;;;;;;;;;59.00;49.50;;;;;;;;2;234071649;234071649;-84
2021/09/30 22:29:00;;;;;;;;;60.00;50.00;;;;;;;;2;279078624;279078624;-84
2021/09/30 22:37:43;;;;;;;;;62.50;51.50;;;;;;;;2;234071035;234071035;-83
2021/09/30 22:46:44;;;;;;;;;53.00;45.00;;;;;;;;2;279083072;279083072;-80
2021/09/30 22:55:26;;;;;;;;;65.50;55.00;;;;;;;;2;234068729;234068729;-81
2021/09/30 23:04:27;;;;;;;;;67.00;57.00;;;;;;;;2;279082833;279082833;-79
2021/09/30 23:13:09;;;;;;;;;56.50;47.50;;;;;;;;2;234068806;234068806;-79
2021/09/30 23:22:10;;;;;;;;;56.50;47.50;;;;;;;;2;279080969;279080969;-79
2021/09/30 23:30:53;;;;;;;;;58.00;48.50;;;;;;;;2;234070471;234070471;-79
2021/09/30 23:39:54;;;;;;;;;47.50;41.00;;;;;;;;2;279083132;279083132;-79
2021/09/30 23:48:36;;;;;;;;;49.00;42.50;;;;;;;;2;234067195;234067195;-79
2021/09/30 23:57:37;;;;;;;;;51.50;44.00;;;;;;;;2;279078235;279078235;-78
